createdAt,value
2023-11-21T00:02:23.182Z,52.87
2023-11-21T00:04:50.265Z,54.00
2023-11-21T00:07:17.138Z,50.90
2023-11-21T00:09:44.283Z,57.80
2023-11-21T00:12:14.931Z,56.47
2023-11-21T00:14:42.094Z,57.20
2023-11-21T00:17:08.894Z,54.63
2023-11-21T00:19:36.205Z,63.60
2023-11-21T00:22:03.135Z,52.53
2023-11-21T00:24:29.889Z,53.60
2023-11-21T00:26:57.019Z,56.63
2023-11-21T00:29:24.171Z,47.90
2023-11-21T00:31:50.968Z,50.80
2023-11-21T00:34:17.856Z,56.93
2023-11-21T00:36:44.555Z,64.17
2023-11-21T00:39:12.743Z,58.80
2023-11-21T00:41:39.460Z,61.00
2023-11-21T00:44:07.850Z,64.90
2023-11-21T00:46:34.983Z,55.30
2023-11-21T00:49:01.842Z,74.20
2023-11-21T00:51:29.010Z,55.80
2023-11-21T00:53:56.191Z,56.20
2023-11-21T00:56:23.411Z,68.73
2023-11-21T00:58:53.799Z,62.07
2023-11-21T01:01:23.175Z,72.03
2023-11-21T01:03:50.306Z,57.30
2023-11-21T01:06:17.593Z,63.10
2023-11-21T01:08:47.758Z,71.77
2023-11-21T01:11:14.935Z,72.83
2023-11-21T01:13:43.441Z,54.17
2023-11-21T01:16:10.461Z,70.13
2023-11-21T01:18:37.800Z,72.17
2023-11-21T01:21:04.892Z,67.23
2023-11-21T01:23:31.737Z,62.90
2023-11-21T01:25:58.875Z,78.93
2023-11-21T01:28:26.033Z,55.53
2023-11-21T01:30:54.144Z,62.87
2023-11-21T01:33:21.095Z,62.00
2023-11-21T01:35:47.977Z,62.20
2023-11-21T01:38:16.163Z,58.27
2023-11-21T01:40:42.919Z,53.73
2023-11-21T01:43:09.946Z,54.40
2023-11-21T01:45:36.846Z,49.60
2023-11-21T01:48:04.575Z,54.83
2023-11-21T01:50:31.850Z,65.43
2023-11-21T01:52:58.864Z,46.67
2023-11-21T01:55:28.143Z,49.57
2023-11-21T01:57:59.294Z,51.97
2023-11-21T02:00:29.164Z,46.80
2023-11-21T02:02:56.188Z,54.43
2023-11-21T02:05:23.171Z,47.87
2023-11-21T02:07:50.047Z,44.73
2023-11-21T02:10:18.109Z,59.97
2023-11-21T02:12:45.778Z,55.33
2023-11-21T02:15:27.942Z,53.40
2023-11-21T02:17:55.576Z,43.03
2023-11-21T02:20:26.001Z,40.57
2023-11-21T02:22:59.036Z,52.60
2023-11-21T02:25:31.310Z,45.33
2023-11-21T02:27:59.640Z,44.10
2023-11-21T02:30:26.726Z,46.73
2023-11-21T02:32:58.231Z,45.50
2023-11-21T02:35:27.000Z,44.17
2023-11-21T02:37:54.849Z,42.43
2023-11-21T02:40:22.298Z,50.40
2023-11-21T02:42:49.255Z,55.60
2023-11-21T02:45:19.730Z,48.73
2023-11-21T02:47:46.832Z,44.00
2023-11-21T02:50:14.273Z,46.40
2023-11-21T02:52:41.248Z,43.93
2023-11-21T02:55:11.186Z,55.83
2023-11-21T02:57:37.922Z,58.43
2023-11-21T03:00:08.501Z,46.90
2023-11-21T03:02:40.915Z,57.10
2023-11-21T03:05:10.317Z,48.33
2023-11-21T03:07:41.328Z,55.53
2023-11-21T03:10:12.197Z,47.13
2023-11-21T03:12:42.284Z,49.10
2023-11-21T03:15:12.213Z,56.10
2023-11-21T03:17:39.085Z,66.07
2023-11-21T03:20:07.147Z,57.00
2023-11-21T03:22:34.520Z,56.10
2023-11-21T03:25:01.730Z,54.67
2023-11-21T03:27:28.460Z,43.60
2023-11-21T03:29:55.963Z,55.57
2023-11-21T03:32:23.251Z,53.33
2023-11-21T03:34:57.755Z,51.53
2023-11-21T03:37:25.940Z,55.90
2023-11-21T03:39:52.867Z,55.80
2023-11-21T03:42:19.919Z,56.03
2023-11-21T03:44:46.647Z,45.03
2023-11-21T03:47:13.525Z,52.70
2023-11-21T03:49:40.495Z,57.57
2023-11-21T03:52:08.758Z,54.87
2023-11-21T03:54:35.604Z,55.40
2023-11-21T03:57:02.414Z,57.93
2023-11-21T03:59:29.193Z,58.73
2023-11-21T04:01:58.764Z,69.53
2023-11-21T04:04:25.556Z,61.93
2023-11-21T04:06:55.309Z,60.70
2023-11-21T04:09:22.415Z,62.20
2023-11-21T04:11:49.594Z,62.47
2023-11-21T04:14:16.283Z,64.47
2023-11-21T04:16:43.148Z,61.60
2023-11-21T04:19:11.491Z,59.80
2023-11-21T04:21:39.166Z,80.20
2023-11-21T04:24:07.265Z,67.60
2023-11-21T04:26:34.477Z,70.93
2023-11-21T04:29:01.270Z,66.87
2023-11-21T04:31:28.104Z,62.03
2023-11-21T04:33:54.874Z,73.87
2023-11-21T04:36:21.594Z,61.53
2023-11-21T04:38:48.288Z,62.00
2023-11-21T04:41:15.014Z,60.83
2023-11-21T04:43:43.539Z,63.10
2023-11-21T04:46:10.579Z,59.93
2023-11-21T04:48:37.332Z,77.70
2023-11-21T04:51:05.457Z,73.37
2023-11-21T04:53:32.195Z,52.40
2023-11-21T04:55:59.901Z,56.13
2023-11-21T04:58:26.672Z,51.10
2023-11-21T05:00:53.457Z,63.90
2023-11-21T05:03:20.720Z,54.60
2023-11-21T05:05:47.527Z,67.97
2023-11-21T05:08:14.341Z,53.83
2023-11-21T05:10:41.837Z,58.40
2023-11-21T05:13:12.110Z,46.53
2023-11-21T05:15:40.377Z,50.57
2023-11-21T05:18:07.838Z,61.50
2023-11-21T05:20:34.738Z,51.97
2023-11-21T05:23:01.520Z,50.30
2023-11-21T05:25:28.421Z,48.97
2023-11-21T05:28:00.506Z,53.37
2023-11-21T05:30:27.275Z,47.10
2023-11-21T05:32:54.568Z,39.43
2023-11-21T05:35:24.403Z,49.10
2023-11-21T05:37:51.285Z,51.17
2023-11-21T05:40:18.175Z,48.63
2023-11-21T05:42:45.413Z,44.53
2023-11-21T05:45:12.566Z,44.07
2023-11-21T05:47:45.022Z,44.83
2023-11-21T05:50:15.420Z,42.80
2023-11-21T05:52:43.580Z,48.53
2023-11-21T05:55:10.572Z,46.50
2023-11-21T05:57:38.996Z,45.53
2023-11-21T06:00:12.212Z,48.63
2023-11-21T06:02:40.146Z,43.10
2023-11-21T06:05:08.703Z,44.50
2023-11-21T06:07:36.502Z,52.27
2023-11-21T06:10:07.290Z,47.30
2023-11-21T06:12:36.704Z,50.17
2023-11-21T06:15:06.210Z,58.37
2023-11-21T06:17:33.198Z,48.87
2023-11-21T06:20:00.339Z,55.63
2023-11-21T06:22:27.216Z,46.30
2023-11-21T06:24:53.968Z,51.87
2023-11-21T06:27:20.685Z,44.23
2023-11-21T06:29:48.097Z,46.07
2023-11-21T06:32:17.696Z,52.70
2023-11-21T06:34:44.631Z,71.13
2023-11-21T06:37:13.039Z,60.83
2023-11-21T06:39:39.763Z,60.70
2023-11-21T06:42:06.765Z,71.13
2023-11-21T06:44:34.546Z,52.20
2023-11-21T06:47:01.867Z,65.67
2023-11-21T06:49:28.698Z,54.87
2023-11-21T06:51:56.302Z,68.83
2023-11-21T06:54:23.750Z,68.27
2023-11-21T06:56:50.511Z,56.30
2023-11-21T06:59:17.380Z,65.23
2023-11-21T07:01:44.400Z,54.30
2023-11-21T07:04:11.328Z,65.00
2023-11-21T07:06:38.760Z,54.63
2023-11-21T07:09:05.516Z,59.47
2023-11-21T07:11:32.230Z,67.40
2023-11-21T07:13:58.972Z,60.97
2023-11-21T07:16:26.581Z,61.93
2023-11-21T07:18:53.318Z,71.00
2023-11-21T07:21:21.952Z,48.93
2023-11-21T07:23:48.648Z,56.20
2023-11-21T07:26:15.385Z,50.00
2023-11-21T07:28:42.537Z,44.70
2023-11-21T07:31:09.369Z,43.87
2023-11-21T07:33:36.139Z,32.93
2023-11-21T07:36:02.860Z,30.47
2023-11-21T07:38:29.579Z,33.23
2023-11-21T07:40:56.301Z,27.33
2023-11-21T07:43:23.546Z,25.27
2023-11-21T07:45:50.246Z,28.60
2023-11-21T07:48:17.409Z,29.23
2023-11-21T07:50:44.256Z,27.93
2023-11-21T07:53:10.925Z,28.03
2023-11-21T07:55:37.648Z,22.37
2023-11-21T07:58:05.303Z,26.73
2023-11-21T08:00:32.187Z,22.93
2023-11-21T08:02:59.143Z,23.10
2023-11-21T08:05:32.669Z,26.63
2023-11-21T08:08:04.188Z,23.40
2023-11-21T08:10:31.513Z,24.27
2023-11-21T08:12:59.219Z,17.53
2023-11-21T08:15:26.239Z,23.07
2023-11-21T08:17:52.981Z,24.73
2023-11-21T08:20:19.874Z,20.57
2023-11-21T08:22:48.917Z,25.57
2023-11-21T08:25:15.816Z,22.20
2023-11-21T08:27:42.570Z,26.20
2023-11-21T08:30:09.778Z,29.70
2023-11-21T08:32:36.664Z,26.30
2023-11-21T08:35:03.692Z,22.73
2023-11-21T08:37:31.480Z,27.87
2023-11-21T08:40:03.319Z,20.47
2023-11-21T08:42:31.231Z,21.53
2023-11-21T08:45:01.570Z,17.70
2023-11-21T08:47:28.498Z,17.13
2023-11-21T08:49:55.737Z,20.00
2023-11-21T08:52:25.227Z,16.30
2023-11-21T08:54:57.282Z,18.63
2023-11-21T08:57:24.577Z,18.43
2023-11-21T08:59:56.567Z,23.87
2023-11-21T09:02:24.521Z,16.43
2023-11-21T09:04:53.760Z,17.30
2023-11-21T09:07:21.599Z,21.93
2023-11-21T09:09:49.119Z,18.50
2023-11-21T09:12:16.899Z,16.23
2023-11-21T09:14:45.140Z,16.63
2023-11-21T09:17:12.724Z,20.43
2023-11-21T09:19:39.846Z,19.40
2023-11-21T09:22:06.864Z,20.03
2023-11-21T09:24:34.472Z,16.90
2023-11-21T09:27:01.336Z,18.63
2023-11-21T09:29:28.604Z,15.37
2023-11-21T09:31:56.062Z,13.07
2023-11-21T09:34:23.620Z,18.10
2023-11-21T09:36:50.836Z,16.87
2023-11-21T09:39:19.056Z,16.50
2023-11-21T09:41:56.416Z,14.77
2023-11-21T09:45:05.803Z,16.53
2023-11-21T09:47:37.056Z,25.63
2023-11-21T09:50:04.530Z,12.13
2023-11-21T09:52:33.808Z,12.03
2023-11-21T09:55:03.338Z,11.33
2023-11-21T09:57:30.904Z,15.90
2023-11-21T10:00:02.452Z,15.03
2023-11-21T10:02:31.767Z,10.93
2023-11-21T10:05:01.353Z,10.73
2023-11-21T10:07:31.861Z,10.53
2023-11-21T10:10:00.331Z,13.00
2023-11-21T10:12:29.406Z,15.83
2023-11-21T10:15:01.360Z,16.60
2023-11-21T10:17:31.954Z,11.73
2023-11-21T10:19:59.783Z,13.37
2023-11-21T10:22:27.734Z,12.20
2023-11-21T10:24:54.860Z,12.43
2023-11-21T10:27:21.650Z,12.20
2023-11-21T10:29:48.478Z,12.53
2023-11-21T10:32:15.447Z,14.30
2023-11-21T10:34:42.665Z,9.37
2023-11-21T10:37:17.513Z,11.57
2023-11-21T10:39:46.540Z,11.63
2023-11-21T10:42:13.338Z,12.50
2023-11-21T10:44:40.518Z,12.17
2023-11-21T10:47:13.109Z,11.07
2023-11-21T10:49:41.556Z,12.30
2023-11-21T10:52:08.341Z,13.43
2023-11-21T10:54:37.045Z,13.80
2023-11-21T10:57:05.540Z,16.63
2023-11-21T10:59:33.782Z,16.60
2023-11-21T11:02:04.565Z,18.03
2023-11-21T11:04:32.862Z,16.30
2023-11-21T11:07:06.248Z,19.13
2023-11-21T11:09:34.828Z,18.10
2023-11-21T11:12:05.537Z,18.53
2023-11-21T11:14:33.629Z,21.33
2023-11-21T11:17:03.002Z,19.70
2023-11-21T11:19:30.390Z,20.47
2023-11-21T11:22:13.231Z,15.80
2023-11-21T11:25:01.110Z,17.10
2023-11-21T11:27:49.652Z,24.93
2023-11-21T11:30:29.647Z,21.37
2023-11-21T11:33:22.306Z,18.60
2023-11-21T11:36:04.145Z,49.83
2023-11-21T11:38:34.931Z,21.60
2023-11-21T11:41:05.974Z,18.93
2023-11-21T11:43:34.076Z,20.47
2023-11-21T11:46:04.988Z,19.67
2023-11-21T11:48:38.955Z,18.37
2023-11-21T11:51:09.992Z,17.07
2023-11-21T11:53:38.899Z,20.93
2023-11-21T11:56:27.259Z,19.20
2023-11-21T11:58:56.679Z,29.03
2023-11-21T12:01:25.668Z,15.23
2023-11-21T12:04:21.605Z,22.40
2023-11-21T12:06:48.575Z,19.13
2023-11-21T12:09:22.741Z,20.97
2023-11-21T12:11:52.868Z,16.77
2023-11-21T12:14:19.770Z,18.00
2023-11-21T12:16:46.679Z,22.30
2023-11-21T12:19:13.843Z,20.17
2023-11-21T12:21:45.116Z,17.63
2023-11-21T12:24:14.726Z,22.50
2023-11-21T12:26:42.456Z,24.10
2023-11-21T12:29:09.182Z,21.30
2023-11-21T12:31:36.490Z,16.13
2023-11-21T12:34:04.428Z,17.90
2023-11-21T12:36:31.601Z,15.20
2023-11-21T12:38:58.409Z,18.07
2023-11-21T12:41:25.228Z,12.67
2023-11-21T12:43:52.109Z,14.30
2023-11-21T12:46:19.233Z,14.23
2023-11-21T12:48:46.929Z,19.43
2023-11-21T12:51:17.295Z,16.50
2023-11-21T12:53:45.226Z,16.43
2023-11-21T12:56:13.125Z,13.13
2023-11-21T12:58:41.339Z,16.20
2023-11-21T13:01:13.137Z,13.40
2023-11-21T13:03:41.579Z,14.10
2023-11-21T13:06:08.987Z,13.47
2023-11-21T13:08:35.981Z,15.07
2023-11-21T13:11:04.013Z,14.40
2023-11-21T13:13:31.325Z,14.50
2023-11-21T13:16:05.882Z,14.07
2023-11-21T13:18:33.094Z,11.83
2023-11-21T13:21:10.448Z,15.63
2023-11-21T13:23:39.029Z,13.50
2023-11-21T13:26:07.594Z,18.80
2023-11-21T13:28:35.916Z,16.17
2023-11-21T13:31:11.954Z,12.67
2023-11-21T13:33:40.323Z,15.13
2023-11-21T13:36:10.486Z,17.27
2023-11-21T13:38:38.656Z,11.40
2023-11-21T13:41:08.640Z,13.80
2023-11-21T13:43:37.857Z,12.80
2023-11-21T13:46:16.421Z,23.23
2023-11-21T13:48:52.614Z,20.63
2023-11-21T13:51:19.771Z,14.23
2023-11-21T13:53:52.025Z,14.50
2023-11-21T13:56:24.896Z,17.70
2023-11-21T13:58:53.030Z,15.60
2023-11-21T14:01:33.259Z,15.70
2023-11-21T14:04:34.261Z,16.30
2023-11-21T14:07:11.894Z,15.27
2023-11-21T14:09:45.110Z,18.77
2023-11-21T14:12:14.319Z,16.90
2023-11-21T14:14:41.691Z,15.00
2023-11-21T14:17:08.870Z,14.37
2023-11-21T14:19:40.082Z,14.23
2023-11-21T14:22:08.061Z,12.60
2023-11-21T14:24:35.206Z,19.20
2023-11-21T14:27:02.371Z,14.07
2023-11-21T14:29:30.833Z,13.40
2023-11-21T14:31:58.957Z,14.37
2023-11-21T14:34:27.672Z,14.27
2023-11-21T14:36:54.426Z,20.03
2023-11-21T14:39:28.685Z,15.70
2023-11-21T14:42:01.728Z,17.80
2023-11-21T14:44:30.224Z,12.70
2023-11-21T14:46:59.653Z,14.13
2023-11-21T14:49:29.115Z,13.87
2023-11-21T14:52:03.613Z,17.67
2023-11-21T14:54:41.551Z,17.07
2023-11-21T14:57:14.953Z,17.23
2023-11-21T14:59:53.593Z,15.13
2023-11-21T15:02:44.265Z,14.07
2023-11-21T15:05:16.184Z,20.53
2023-11-21T15:07:44.863Z,13.60
2023-11-21T15:10:15.965Z,13.27
2023-11-21T15:12:44.785Z,12.40
2023-11-21T15:15:12.081Z,19.30
2023-11-21T15:17:40.910Z,16.93
2023-11-21T15:20:09.813Z,14.53
2023-11-21T15:22:36.967Z,12.60
2023-11-21T15:25:10.649Z,13.97
2023-11-21T15:27:37.866Z,26.70
2023-11-21T15:30:05.276Z,13.07
2023-11-21T15:32:32.160Z,17.07
2023-11-21T15:34:58.961Z,17.77
2023-11-21T15:37:28.820Z,19.67
2023-11-21T15:39:55.633Z,16.63
2023-11-21T15:42:22.471Z,16.83
2023-11-21T15:44:51.706Z,14.80
2023-11-21T15:47:18.765Z,17.30
2023-11-21T15:49:48.635Z,17.70
2023-11-21T15:52:18.340Z,16.10
2023-11-21T15:54:47.212Z,25.63
2023-11-21T15:57:15.502Z,19.13
2023-11-21T15:59:44.013Z,17.47
2023-11-21T16:02:12.779Z,16.47
2023-11-21T16:04:41.742Z,18.60
2023-11-21T16:07:09.149Z,17.90
2023-11-21T16:09:37.051Z,21.70
2023-11-21T16:12:06.818Z,21.40
2023-11-21T16:14:42.531Z,16.73
2023-11-21T16:17:10.248Z,16.60
2023-11-21T16:19:39.738Z,23.87
2023-11-21T16:22:07.454Z,13.33
2023-11-21T16:24:34.992Z,18.87
2023-11-21T16:27:03.217Z,13.40
2023-11-21T16:29:32.085Z,16.10
2023-11-21T16:31:59.593Z,14.87
2023-11-21T16:34:26.417Z,17.47
2023-11-21T16:36:53.622Z,15.10
2023-11-21T16:39:22.760Z,19.07
2023-11-21T16:41:49.911Z,18.53
2023-11-21T16:44:21.480Z,17.30
2023-11-21T16:46:58.262Z,14.40
2023-11-21T16:49:27.841Z,14.17
2023-11-21T16:51:55.492Z,16.20
2023-11-21T16:54:22.833Z,15.87
2023-11-21T16:56:49.972Z,15.20
2023-11-21T16:59:17.138Z,14.40
2023-11-21T17:01:46.213Z,13.73
2023-11-21T17:04:15.995Z,13.40
2023-11-21T17:06:44.347Z,14.37
2023-11-21T17:09:11.713Z,16.67
2023-11-21T17:11:38.627Z,17.37
2023-11-21T17:14:07.893Z,19.43
2023-11-21T17:16:34.931Z,19.77
2023-11-21T17:19:03.409Z,28.83
2023-11-21T17:21:34.849Z,20.23
2023-11-21T17:24:02.672Z,16.63
2023-11-21T17:26:29.884Z,17.60
2023-11-21T17:28:58.092Z,21.90
2023-11-21T17:31:25.380Z,17.67
2023-11-21T17:33:54.408Z,20.50
2023-11-21T17:36:21.993Z,16.53
2023-11-21T17:38:49.217Z,20.87
2023-11-21T17:41:24.176Z,17.47
2023-11-21T17:43:51.635Z,16.73
2023-11-21T17:46:24.858Z,18.77
2023-11-21T17:48:54.899Z,26.37
2023-11-21T17:51:21.839Z,16.90
2023-11-21T17:53:49.909Z,18.60
2023-11-21T17:56:18.561Z,16.37
2023-11-21T17:58:46.121Z,12.37
2023-11-21T18:01:14.236Z,12.23
2023-11-21T18:03:41.729Z,11.67
2023-11-21T18:06:08.977Z,15.80
2023-11-21T18:08:38.388Z,16.37
2023-11-21T18:11:06.218Z,15.00
2023-11-21T18:13:33.394Z,14.60
2023-11-21T18:16:00.290Z,12.67
2023-11-21T18:18:27.142Z,14.90
2023-11-21T18:20:54.026Z,11.37
2023-11-21T18:23:21.212Z,8.80
2023-11-21T18:25:48.022Z,12.00
2023-11-21T18:28:15.515Z,19.13
2023-11-21T18:30:42.821Z,10.90
2023-11-21T18:33:11.340Z,11.90
2023-11-21T18:35:38.255Z,15.80
2023-11-21T18:38:05.483Z,13.57
2023-11-21T18:40:32.766Z,18.30
2023-11-21T18:42:59.855Z,18.60
2023-11-21T18:45:26.609Z,10.60
2023-11-21T18:47:53.385Z,14.03
2023-11-21T18:50:22.383Z,13.80
2023-11-21T18:52:50.832Z,20.00
2023-11-21T18:55:18.143Z,13.47
2023-11-21T18:57:44.904Z,14.50
2023-11-21T19:00:13.638Z,13.57
2023-11-21T19:02:41.715Z,10.97
2023-11-21T19:05:09.913Z,10.87
2023-11-21T19:07:39.717Z,14.90
2023-11-21T19:10:07.238Z,12.60
2023-11-21T19:12:37.099Z,12.50
2023-11-21T19:15:04.864Z,12.17
2023-11-21T19:17:33.602Z,11.53
2023-11-21T19:20:01.636Z,13.90
2023-11-21T19:22:28.889Z,11.57
2023-11-21T19:24:55.680Z,13.70
2023-11-21T19:27:22.532Z,18.13
2023-11-21T19:29:49.790Z,11.30
2023-11-21T19:32:16.896Z,15.70
2023-11-21T19:34:43.866Z,12.07
2023-11-21T19:37:11.964Z,13.73
2023-11-21T19:39:38.768Z,14.13
2023-11-21T19:42:06.037Z,12.77
2023-11-21T19:44:33.495Z,11.10
2023-11-21T19:47:00.365Z,13.97
2023-11-21T19:49:27.164Z,13.63
2023-11-21T19:51:54.627Z,12.60
2023-11-21T19:54:21.633Z,14.60
2023-11-21T19:56:48.405Z,11.77
2023-11-21T19:59:17.186Z,15.27
2023-11-21T20:01:44.518Z,12.63
2023-11-21T20:04:12.212Z,14.17
2023-11-21T20:06:45.199Z,14.73
2023-11-21T20:09:17.976Z,14.53
2023-11-21T20:11:47.312Z,13.90
2023-11-21T20:14:14.704Z,14.37
2023-11-21T20:16:42.136Z,13.87
2023-11-21T20:19:09.530Z,16.23
2023-11-21T20:21:36.716Z,14.33
2023-11-21T20:24:03.875Z,16.43
2023-11-21T20:26:32.557Z,16.63
2023-11-21T20:28:59.417Z,18.43
2023-11-21T20:31:26.629Z,15.37
2023-11-21T20:33:53.924Z,17.00
2023-11-21T20:36:21.302Z,18.20
2023-11-21T20:38:48.137Z,13.47
2023-11-21T20:41:15.278Z,12.80
2023-11-21T20:43:42.698Z,12.17
2023-11-21T20:46:10.035Z,12.23
2023-11-21T20:48:37.487Z,16.40
2023-11-21T20:51:05.248Z,9.30
2023-11-21T20:53:33.189Z,13.20
2023-11-21T20:56:02.469Z,15.13
2023-11-21T20:58:29.839Z,10.07
2023-11-21T21:00:56.640Z,12.60
2023-11-21T21:03:25.242Z,12.10
2023-11-21T21:05:53.367Z,19.40
2023-11-21T21:08:20.944Z,9.13
2023-11-21T21:10:48.250Z,10.50
2023-11-21T21:13:17.843Z,10.67
2023-11-21T21:15:49.511Z,9.10
2023-11-21T21:18:17.249Z,12.60
2023-11-21T21:20:44.135Z,10.60
2023-11-21T21:23:10.935Z,9.37
2023-11-21T21:25:37.675Z,12.90
2023-11-21T21:28:04.688Z,11.40
2023-11-21T21:30:31.956Z,14.60
2023-11-21T21:33:01.302Z,9.17
2023-11-21T21:35:29.602Z,9.20
2023-11-21T21:38:00.614Z,9.07
2023-11-21T21:40:28.560Z,10.70
2023-11-21T21:42:57.006Z,10.43
2023-11-21T21:45:23.817Z,18.67
2023-11-21T21:47:51.259Z,9.30
2023-11-21T21:50:20.165Z,12.57
2023-11-21T21:52:48.061Z,12.67
2023-11-21T21:55:15.887Z,11.57
2023-11-21T21:57:43.214Z,11.57
2023-11-21T22:00:13.973Z,16.93
2023-11-21T22:02:44.132Z,15.23
2023-11-21T22:05:14.920Z,14.20
2023-11-21T22:07:43.191Z,22.67
2023-11-21T22:10:10.430Z,13.90
2023-11-21T22:12:37.939Z,12.93
2023-11-21T22:15:05.809Z,16.60
2023-11-21T22:17:32.982Z,12.60
2023-11-21T22:20:00.455Z,14.13
2023-11-21T22:22:28.289Z,9.77
2023-11-21T22:24:55.704Z,14.20
2023-11-21T22:27:22.579Z,13.93
2023-11-21T22:29:49.684Z,13.60
2023-11-21T22:32:16.886Z,15.37
2023-11-21T22:34:43.612Z,14.03
2023-11-21T22:37:11.023Z,12.77
2023-11-21T22:39:37.920Z,14.60
2023-11-21T22:42:05.232Z,15.93
2023-11-21T22:44:32.503Z,16.03
2023-11-21T22:47:02.473Z,16.30
2023-11-21T22:49:30.149Z,14.17
2023-11-21T22:51:57.798Z,10.80
2023-11-21T22:54:24.973Z,12.00
2023-11-21T22:56:54.677Z,12.13
2023-11-21T22:59:21.980Z,17.50
2023-11-21T23:01:52.315Z,14.63
2023-11-21T23:04:19.644Z,12.93
2023-11-21T23:06:48.040Z,19.77
2023-11-21T23:09:16.972Z,15.20
2023-11-21T23:11:44.575Z,12.30
2023-11-21T23:14:11.458Z,12.07
2023-11-21T23:16:38.732Z,12.83
2023-11-21T23:19:05.827Z,16.93
2023-11-21T23:21:35.622Z,13.30
2023-11-21T23:24:10.336Z,12.33
2023-11-21T23:26:39.513Z,13.50
2023-11-21T23:29:07.520Z,17.23
2023-11-21T23:31:34.785Z,13.37
2023-11-21T23:34:02.705Z,16.10
2023-11-21T23:36:29.613Z,14.13
2023-11-21T23:38:56.837Z,14.97
2023-11-21T23:41:24.473Z,11.27
2023-11-21T23:43:52.066Z,11.67
2023-11-21T23:46:19.633Z,12.60
2023-11-21T23:48:47.292Z,14.93
2023-11-21T23:51:14.609Z,10.13
2023-11-21T23:53:41.726Z,12.60
2023-11-21T23:56:09.140Z,12.83
2023-11-21T23:58:38.067Z,16.00
